sensor_id;sensor_type;location;lat;lon;timestamp;P1;durP1;ratioP1;P2;durP2;ratioP2
24995;SDS011;13016;52.162;21.034;2023-06-14T00:04:04;8.40;;;5.20;;
24995;SDS011;13016;52.162;21.034;2023-06-14T00:10:09;8.40;;;5.00;;
24995;SDS011;13016;52.162;21.034;2023-06-14T00:16:30;10.30;;;5.90;;
24995;SDS011;13016;52.162;21.034;2023-06-14T00:22:36;10.90;;;7.50;;
24995;SDS011;13016;52.162;21.034;2023-06-14T00:28:38;12.30;;;8.90;;
24995;SDS011;13016;52.162;21.034;2023-06-14T00:34:42;13.30;;;10.00;;
24995;SDS011;13016;52.162;21.034;2023-06-14T00:40:43;15.30;;;10.60;;
24995;SDS011;13016;52.162;21.034;2023-06-14T00:47:00;14.50;;;11.50;;
24995;SDS011;13016;52.162;21.034;2023-06-14T00:53:02;17.00;;;11.90;;
24995;SDS011;13016;52.162;21.034;2023-06-14T00:59:02;14.20;;;11.20;;
24995;SDS011;13016;52.162;21.034;2023-06-14T01:05:05;18.60;;;11.60;;
24995;SDS011;13016;52.162;21.034;2023-06-14T01:11:22;17.60;;;11.50;;
24995;SDS011;13016;52.162;21.034;2023-06-14T01:17:28;17.00;;;12.00;;
24995;SDS011;13016;52.162;21.034;2023-06-14T01:23:31;14.40;;;10.30;;
24995;SDS011;13016;52.162;21.034;2023-06-14T01:29:35;13.60;;;10.20;;
24995;SDS011;13016;52.162;21.034;2023-06-14T01:35:37;17.60;;;11.00;;
24995;SDS011;13016;52.162;21.034;2023-06-14T01:41:56;11.70;;;9.00;;
24995;SDS011;13016;52.162;21.034;2023-06-14T01:48:32;12.20;;;8.50;;
24995;SDS011;13016;52.162;21.034;2023-06-14T01:54:35;12.10;;;8.70;;
24995;SDS011;13016;52.162;21.034;2023-06-14T02:00:35;12.60;;;8.20;;
24995;SDS011;13016;52.162;21.034;2023-06-14T02:06:42;10.00;;;7.70;;
24995;SDS011;13016;52.162;21.034;2023-06-14T02:20:35;9.20;;;6.80;;
24995;SDS011;13016;52.162;21.034;2023-06-14T02:26:48;10.60;;;6.60;;
24995;SDS011;13016;52.162;21.034;2023-06-14T02:33:28;8.10;;;6.70;;
24995;SDS011;13016;52.162;21.034;2023-06-14T02:39:51;10.80;;;6.10;;
24995;SDS011;13016;52.162;21.034;2023-06-14T02:45:59;6.80;;;5.80;;
24995;SDS011;13016;52.162;21.034;2023-06-14T02:52:03;8.30;;;5.50;;
24995;SDS011;13016;52.162;21.034;2023-06-14T02:58:27;12.20;;;5.90;;
24995;SDS011;13016;52.162;21.034;2023-06-14T03:04:29;11.20;;;5.60;;
24995;SDS011;13016;52.162;21.034;2023-06-14T03:10:34;9.60;;;5.70;;
24995;SDS011;13016;52.162;21.034;2023-06-14T03:16:57;7.80;;;5.00;;
24995;SDS011;13016;52.162;21.034;2023-06-14T03:23:25;7.10;;;5.80;;
24995;SDS011;13016;52.162;21.034;2023-06-14T03:29:46;8.50;;;6.10;;
24995;SDS011;13016;52.162;21.034;2023-06-14T03:36:15;9.70;;;6.20;;
24995;SDS011;13016;52.162;21.034;2023-06-14T03:42:36;8.10;;;5.70;;
24995;SDS011;13016;52.162;21.034;2023-06-14T03:49:00;8.60;;;6.20;;
24995;SDS011;13016;52.162;21.034;2023-06-14T03:55:02;8.50;;;6.00;;
24995;SDS011;13016;52.162;21.034;2023-06-14T04:01:30;10.60;;;5.90;;
24995;SDS011;13016;52.162;21.034;2023-06-14T04:07:51;7.90;;;5.90;;
24995;SDS011;13016;52.162;21.034;2023-06-14T04:19:55;11.50;;;6.00;;
24995;SDS011;13016;52.162;21.034;2023-06-14T04:25:56;7.30;;;5.80;;
24995;SDS011;13016;52.162;21.034;2023-06-14T04:31:57;9.20;;;5.50;;
24995;SDS011;13016;52.162;21.034;2023-06-14T04:37:58;11.90;;;6.80;;
24995;SDS011;13016;52.162;21.034;2023-06-14T04:44:24;7.60;;;5.70;;
24995;SDS011;13016;52.162;21.034;2023-06-14T04:50:25;7.40;;;6.30;;
24995;SDS011;13016;52.162;21.034;2023-06-14T04:56:26;7.60;;;5.90;;
24995;SDS011;13016;52.162;21.034;2023-06-14T05:02:27;7.10;;;5.60;;
24995;SDS011;13016;52.162;21.034;2023-06-14T05:08:28;7.60;;;6.10;;
24995;SDS011;13016;52.162;21.034;2023-06-14T05:18:42;10.50;;;6.10;;
24995;SDS011;13016;52.162;21.034;2023-06-14T05:24:54;10.10;;;5.70;;
24995;SDS011;13016;52.162;21.034;2023-06-14T05:37:31;7.60;;;6.20;;
24995;SDS011;13016;52.162;21.034;2023-06-14T05:50:10;8.50;;;6.20;;
24995;SDS011;13016;52.162;21.034;2023-06-14T05:56:48;9.40;;;6.10;;
24995;SDS011;13016;52.162;21.034;2023-06-14T06:02:52;10.80;;;6.50;;
24995;SDS011;13016;52.162;21.034;2023-06-14T06:09:03;9.30;;;6.30;;
24995;SDS011;13016;52.162;21.034;2023-06-14T06:15:14;11.50;;;6.60;;
24995;SDS011;13016;52.162;21.034;2023-06-14T12:59:20;2.70;;;2.20;;
24995;SDS011;13016;52.162;21.034;2023-06-14T13:05:20;6.20;;;2.80;;
24995;SDS011;13016;52.162;21.034;2023-06-14T13:11:20;8.10;;;2.50;;
24995;SDS011;13016;52.162;21.034;2023-06-14T13:17:21;7.80;;;2.40;;
24995;SDS011;13016;52.162;21.034;2023-06-14T13:23:37;5.20;;;2.20;;
24995;SDS011;13016;52.162;21.034;2023-06-14T13:29:37;5.00;;;2.30;;
24995;SDS011;13016;52.162;21.034;2023-06-14T13:42:00;3.50;;;2.30;;
24995;SDS011;13016;52.162;21.034;2023-06-14T13:48:04;7.10;;;2.60;;
24995;SDS011;13016;52.162;21.034;2023-06-14T13:54:26;3.70;;;2.30;;
24995;SDS011;13016;52.162;21.034;2023-06-14T14:06:27;5.00;;;2.30;;
24995;SDS011;13016;52.162;21.034;2023-06-14T14:12:27;5.20;;;2.50;;
24995;SDS011;13016;52.162;21.034;2023-06-14T14:18:37;3.80;;;2.40;;
24995;SDS011;13016;52.162;21.034;2023-06-14T14:24:37;5.20;;;2.60;;
24995;SDS011;13016;52.162;21.034;2023-06-14T14:30:43;3.00;;;2.10;;
24995;SDS011;13016;52.162;21.034;2023-06-14T14:36:51;5.60;;;2.70;;
24995;SDS011;13016;52.162;21.034;2023-06-14T14:42:57;4.60;;;2.40;;
24995;SDS011;13016;52.162;21.034;2023-06-14T14:55:36;3.60;;;2.70;;
24995;SDS011;13016;52.162;21.034;2023-06-14T15:01:55;7.20;;;2.50;;
24995;SDS011;13016;52.162;21.034;2023-06-14T15:14:21;5.50;;;2.10;;
24995;SDS011;13016;52.162;21.034;2023-06-14T15:20:41;5.30;;;2.60;;
24995;SDS011;13016;52.162;21.034;2023-06-14T15:26:49;3.70;;;2.60;;
24995;SDS011;13016;52.162;21.034;2023-06-14T15:32:59;4.20;;;2.10;;
24995;SDS011;13016;52.162;21.034;2023-06-14T15:39:00;2.80;;;2.40;;
24995;SDS011;13016;52.162;21.034;2023-06-14T16:44:19;8.60;;;5.20;;
24995;SDS011;13016;52.162;21.034;2023-06-14T16:50:21;6.20;;;3.80;;
24995;SDS011;13016;52.162;21.034;2023-06-14T17:36:11;7.80;;;5.90;;
24995;SDS011;13016;52.162;21.034;2023-06-14T17:42:14;8.30;;;6.00;;
24995;SDS011;13016;52.162;21.034;2023-06-14T17:48:15;9.00;;;6.50;;
24995;SDS011;13016;52.162;21.034;2023-06-14T17:54:15;9.10;;;6.90;;
24995;SDS011;13016;52.162;21.034;2023-06-14T18:00:25;11.40;;;7.00;;
24995;SDS011;13016;52.162;21.034;2023-06-14T18:06:26;15.70;;;8.60;;
24995;SDS011;13016;52.162;21.034;2023-06-14T18:32:52;10.40;;;7.70;;
24995;SDS011;13016;52.162;21.034;2023-06-14T18:45:53;11.10;;;6.70;;
24995;SDS011;13016;52.162;21.034;2023-06-14T19:25:35;12.90;;;6.60;;
24995;SDS011;13016;52.162;21.034;2023-06-14T19:31:36;10.00;;;6.20;;
24995;SDS011;13016;52.162;21.034;2023-06-14T19:37:45;10.70;;;6.80;;
24995;SDS011;13016;52.162;21.034;2023-06-14T19:43:48;11.90;;;6.70;;
24995;SDS011;13016;52.162;21.034;2023-06-14T19:49:52;9.30;;;6.30;;
24995;SDS011;13016;52.162;21.034;2023-06-14T19:56:01;7.80;;;5.70;;
24995;SDS011;13016;52.162;21.034;2023-06-14T20:02:12;11.60;;;6.80;;
24995;SDS011;13016;52.162;21.034;2023-06-14T20:08:13;11.70;;;6.60;;
